createdAt,value
2022-10-17T00:00:16.815Z,13.80
2022-10-17T00:01:17.207Z,13.80
2022-10-17T00:02:17.457Z,13.77
2022-10-17T00:03:17.775Z,13.74
2022-10-17T00:04:18.083Z,13.71
2022-10-17T00:05:18.402Z,13.73
2022-10-17T00:06:18.743Z,13.74
2022-10-17T00:07:19.050Z,13.70
2022-10-17T00:08:19.369Z,13.71
2022-10-17T00:09:19.668Z,13.74
2022-10-17T00:10:19.951Z,13.73
2022-10-17T00:11:20.280Z,13.70
2022-10-17T00:12:20.585Z,13.65
2022-10-17T00:13:20.921Z,13.61
2022-10-17T00:14:21.170Z,13.56
2022-10-17T00:15:21.500Z,13.56
2022-10-17T00:16:21.801Z,13.55
2022-10-17T00:17:22.106Z,13.58
2022-10-17T00:18:22.400Z,13.58
2022-10-17T00:19:22.688Z,13.51
2022-10-17T00:20:23.022Z,13.37
2022-10-17T00:21:23.326Z,13.30
2022-10-17T00:22:23.694Z,13.29
2022-10-17T00:23:23.887Z,13.29
2022-10-17T00:24:24.227Z,13.36
2022-10-17T00:25:24.540Z,13.38
2022-10-17T00:26:24.859Z,13.44
2022-10-17T00:27:25.423Z,13.44
2022-10-17T00:28:25.433Z,13.58
2022-10-17T00:29:25.777Z,13.55
2022-10-17T00:30:26.094Z,13.47
2022-10-17T00:31:26.413Z,13.38
2022-10-17T00:32:26.953Z,13.30
2022-10-17T00:33:26.908Z,13.32
2022-10-17T00:34:27.237Z,13.32
2022-10-17T00:35:27.565Z,13.29
2022-10-17T00:36:27.915Z,13.33
2022-10-17T00:37:28.113Z,13.40
2022-10-17T00:38:28.427Z,13.32
2022-10-17T00:39:28.741Z,13.27
2022-10-17T00:40:29.053Z,13.27
2022-10-17T00:41:29.388Z,13.32
2022-10-17T00:42:30.070Z,13.27
2022-10-17T00:43:29.834Z,13.21
2022-10-17T00:44:30.136Z,13.25
2022-10-17T00:45:30.451Z,13.22
2022-10-17T00:46:30.800Z,13.29
2022-10-17T00:47:31.000Z,13.32
2022-10-17T00:48:31.336Z,13.38
2022-10-17T00:49:31.670Z,13.40
2022-10-17T00:50:31.868Z,13.38
2022-10-17T00:51:32.201Z,13.33
2022-10-17T02:55:58.044Z,11.80
2022-10-17T02:56:58.312Z,11.90
2022-10-17T02:57:58.565Z,11.89
2022-10-17T02:58:58.823Z,11.90
2022-10-17T02:59:59.068Z,11.85
2022-10-17T03:00:59.292Z,11.80
2022-10-17T03:01:59.543Z,11.80
2022-10-17T03:02:59.895Z,11.78
2022-10-17T03:04:00.125Z,11.82
2022-10-17T03:05:00.449Z,11.80
2022-10-17T03:06:00.754Z,11.80
2022-10-17T03:07:01.066Z,11.80
2022-10-17T03:08:01.417Z,11.74
2022-10-17T03:09:01.622Z,11.72
2022-10-17T03:10:01.941Z,11.77
2022-10-17T03:11:02.255Z,11.83
2022-10-17T03:12:02.564Z,11.85
2022-10-17T03:13:02.913Z,11.89
2022-10-17T03:14:03.134Z,11.93
2022-10-17T03:15:03.464Z,11.93
2022-10-17T03:16:03.833Z,11.86
2022-10-17T03:17:04.052Z,11.75
2022-10-17T03:18:04.380Z,11.68
2022-10-17T03:19:04.683Z,11.67
2022-10-17T03:20:05.012Z,11.61
2022-10-17T03:21:05.206Z,11.52
2022-10-17T03:22:05.504Z,11.49
2022-10-17T03:23:05.803Z,11.56
2022-10-17T03:24:06.151Z,11.53
2022-10-17T03:25:06.355Z,11.56
2022-10-17T03:26:06.686Z,11.59
2022-10-17T03:27:06.922Z,11.59
2022-10-17T03:28:07.114Z,11.57
2022-10-17T03:29:07.479Z,11.57
2022-10-17T03:30:07.716Z,11.54
2022-10-17T03:31:08.040Z,11.49
2022-10-17T03:32:08.399Z,11.49
2022-10-17T03:33:08.596Z,11.46
2022-10-17T03:34:08.886Z,11.38
2022-10-17T03:35:12.615Z,11.35
2022-10-17T03:36:10.481Z,11.39
2022-10-17T03:37:09.761Z,11.50
2022-10-17T03:38:10.110Z,11.53
2022-10-17T03:39:10.353Z,11.56
2022-10-17T03:40:10.571Z,11.44
2022-10-17T03:41:10.886Z,11.36
2022-10-17T03:42:11.246Z,11.34
2022-10-17T03:43:11.467Z,11.34
2022-10-17T03:44:11.780Z,11.38
2022-10-17T03:45:12.120Z,11.35
2022-10-17T03:46:12.341Z,11.39
2022-10-17T03:47:14.259Z,11.35
2022-10-17T03:48:12.868Z,11.34
2022-10-17T03:49:13.192Z,11.34
2022-10-17T03:50:13.560Z,11.36
2022-10-17T03:51:13.764Z,11.41
2022-10-17T03:52:14.103Z,11.38
2022-10-17T03:53:14.422Z,11.41
2022-10-17T03:54:14.775Z,11.39
2022-10-17T03:55:15.005Z,11.38
2022-10-17T03:56:15.217Z,11.44
2022-10-17T03:57:15.560Z,11.50
2022-10-17T03:58:15.764Z,11.50
2022-10-17T03:59:15.976Z,11.50
2022-10-17T04:00:16.297Z,11.53
2022-10-17T04:01:16.663Z,11.49
2022-10-17T04:02:16.950Z,11.39
2022-10-17T04:03:17.442Z,11.36
2022-10-17T04:04:17.499Z,11.31
2022-10-17T04:05:17.829Z,11.29
2022-10-17T04:06:18.126Z,11.20
2022-10-17T04:07:18.508Z,11.27
2022-10-17T04:08:18.704Z,11.32
2022-10-17T04:09:19.017Z,11.38
2022-10-17T04:10:19.336Z,11.44
2022-10-17T04:11:19.641Z,11.44
2022-10-17T04:12:20.023Z,11.43
2022-10-17T04:13:20.231Z,11.46
2022-10-17T04:14:20.561Z,11.43
2022-10-17T04:15:20.879Z,11.34
2022-10-17T04:16:21.188Z,11.29
2022-10-17T04:17:21.556Z,11.20
2022-10-17T04:18:21.759Z,11.11
2022-10-17T04:19:22.059Z,11.06
2022-10-17T04:20:22.382Z,11.11
2022-10-17T04:21:22.706Z,11.16
2022-10-17T04:22:23.044Z,11.24
2022-10-17T04:23:23.253Z,11.29
2022-10-17T04:24:23.578Z,11.34
2022-10-17T04:25:23.900Z,11.43
2022-10-17T04:26:24.214Z,11.47
2022-10-17T04:27:24.543Z,11.52
2022-10-17T04:28:24.864Z,11.50
2022-10-17T04:29:25.019Z,11.49
2022-10-17T04:30:25.333Z,11.47
2022-10-17T04:31:25.661Z,11.49
2022-10-17T04:32:26.158Z,11.41
2022-10-17T04:33:26.223Z,11.41
2022-10-17T04:34:26.522Z,11.44
2022-10-17T04:35:26.831Z,11.50
2022-10-17T04:36:27.151Z,11.52
2022-10-17T04:37:27.482Z,11.59
2022-10-17T04:38:28.687Z,11.62
2022-10-17T04:39:28.004Z,11.67
2022-10-17T04:40:28.359Z,11.75
2022-10-17T04:41:28.551Z,11.85
2022-10-17T04:42:29.098Z,11.93
2022-10-17T04:43:29.093Z,11.97
2022-10-17T04:44:29.441Z,11.93
2022-10-17T04:45:29.664Z,11.86
2022-10-17T04:46:29.983Z,11.85
2022-10-17T04:47:30.242Z,11.93
2022-10-17T04:48:30.449Z,12.02
2022-10-17T04:49:30.892Z,12.02
2022-10-17T04:50:31.021Z,12.05
2022-10-17T04:51:31.237Z,12.04
2022-10-17T04:52:31.842Z,12.01
2022-10-17T04:53:31.842Z,11.99
2022-10-17T04:54:32.205Z,12.04
2022-10-17T04:55:32.404Z,12.02
2022-10-17T04:56:32.742Z,12.04
2022-10-17T04:57:33.060Z,12.06
2022-10-17T04:58:33.389Z,12.05
2022-10-17T04:59:33.735Z,12.13
2022-10-17T05:00:34.001Z,12.16
2022-10-17T05:01:34.233Z,12.16
2022-10-17T05:02:34.549Z,12.16
2022-10-17T05:03:34.887Z,12.13
2022-10-17T05:04:35.242Z,12.08
2022-10-17T05:05:35.434Z,12.06
2022-10-17T05:06:35.733Z,12.09
2022-10-17T05:07:36.032Z,12.15
2022-10-17T05:08:36.364Z,12.19
2022-10-17T05:09:36.593Z,12.23
2022-10-17T05:10:36.912Z,12.26
2022-10-17T05:11:37.244Z,12.30
2022-10-17T05:12:37.458Z,12.30
2022-10-17T05:13:37.788Z,12.33
2022-10-17T05:14:38.131Z,12.33
2022-10-17T05:15:38.338Z,12.33
2022-10-17T05:16:38.661Z,12.34
2022-10-17T05:17:39.012Z,12.41
2022-10-17T05:18:39.219Z,12.39
2022-10-17T05:19:39.533Z,12.38
2022-10-17T05:20:39.842Z,12.33
2022-10-17T05:21:40.207Z,12.37
2022-10-17T05:22:42.036Z,12.38
2022-10-17T05:23:40.667Z,12.37
2022-10-17T05:24:40.981Z,12.34
2022-10-17T05:25:41.279Z,12.37
2022-10-17T05:26:41.648Z,12.30
2022-10-17T05:27:41.921Z,12.26
2022-10-17T05:28:42.169Z,12.26
2022-10-17T05:29:42.398Z,12.26
2022-10-17T05:30:42.721Z,12.26
2022-10-17T05:31:43.102Z,12.27
2022-10-17T05:32:43.318Z,12.29
2022-10-17T05:33:43.642Z,12.34
2022-10-17T05:34:43.976Z,12.34
2022-10-17T05:35:44.335Z,12.33
2022-10-17T05:36:44.548Z,12.33
2022-10-17T05:37:44.866Z,12.29
2022-10-17T05:38:45.242Z,12.33
2022-10-17T05:39:49.205Z,12.34
2022-10-17T05:40:46.785Z,12.38
2022-10-17T05:41:46.081Z,12.38
2022-10-17T05:42:46.290Z,12.39
2022-10-17T05:43:46.598Z,12.41
2022-10-17T05:44:46.978Z,12.39
2022-10-17T05:45:47.184Z,12.34
2022-10-17T05:46:47.499Z,12.31
2022-10-17T05:47:47.707Z,12.30
2022-10-17T05:48:48.010Z,12.30
2022-10-17T05:49:51.417Z,12.33
2022-10-17T05:50:48.654Z,12.30
2022-10-17T05:51:48.972Z,12.29
2022-10-17T05:52:49.280Z,12.29
2022-10-17T05:53:49.593Z,12.29
2022-10-17T05:54:49.947Z,12.27
2022-10-17T05:55:50.176Z,12.31
2022-10-17T05:56:50.499Z,12.29
2022-10-17T05:57:50.822Z,12.26
2022-10-17T05:58:54.111Z,12.23
2022-10-17T05:59:51.386Z,12.23
2022-10-17T06:00:51.706Z,12.24
2022-10-17T06:01:52.023Z,12.21
2022-10-17T06:02:52.357Z,12.24
2022-10-17T06:03:52.719Z,12.21
2022-10-17T06:04:52.933Z,12.21
2022-10-17T06:05:53.192Z,12.26
2022-10-17T06:06:53.399Z,12.29
2022-10-17T06:07:56.972Z,12.29
2022-10-17T06:08:54.938Z,12.29
2022-10-17T06:09:54.221Z,12.30
2022-10-17T06:10:54.538Z,12.29
2022-10-17T06:11:54.852Z,12.27
2022-10-17T06:12:55.211Z,12.29
2022-10-17T06:13:55.469Z,12.30
2022-10-17T06:14:55.689Z,12.33
2022-10-17T06:15:56.000Z,12.34
2022-10-17T06:16:56.334Z,12.29
2022-10-17T06:17:56.552Z,12.24
2022-10-17T06:18:56.907Z,12.21
2022-10-17T06:19:57.109Z,12.19
2022-10-17T06:20:57.448Z,12.16
2022-10-17T06:21:57.782Z,12.12
2022-10-17T06:22:58.101Z,12.15
2022-10-17T06:23:58.429Z,12.23
2022-10-17T06:24:58.632Z,12.23
2022-10-17T06:25:58.962Z,12.21
2022-10-17T06:26:59.281Z,12.27
2022-10-17T06:27:59.639Z,12.34
2022-10-17T06:28:59.971Z,12.44
2022-10-17T06:30:00.145Z,12.54
2022-10-17T06:31:00.337Z,12.64
2022-10-17T06:32:00.671Z,12.69
2022-10-17T06:33:00.985Z,12.71
2022-10-17T06:34:01.304Z,12.79
2022-10-17T06:35:01.673Z,12.81
2022-10-17T06:36:01.887Z,12.89
2022-10-17T06:37:02.216Z,12.93
2022-10-17T06:38:02.539Z,13.04
2022-10-17T06:39:02.872Z,13.12
2022-10-17T06:40:03.085Z,13.14
2022-10-17T06:41:03.348Z,13.17
2022-10-17T06:42:03.571Z,13.21
2022-10-17T06:43:03.890Z,13.25
2022-10-17T06:44:04.210Z,13.30
2022-10-17T06:45:04.549Z,13.36
2022-10-17T06:46:04.806Z,13.36
2022-10-17T06:47:04.988Z,13.38
2022-10-17T06:48:05.352Z,13.43
2022-10-17T06:49:05.547Z,13.43
2022-10-17T06:50:05.874Z,13.43
2022-10-17T06:51:06.198Z,13.46
2022-10-17T06:52:06.526Z,13.52
2022-10-17T06:53:06.874Z,13.58
2022-10-17T06:54:07.129Z,13.62
2022-10-17T06:55:07.347Z,13.73
2022-10-17T06:56:07.665Z,13.91
2022-10-17T06:57:07.969Z,14.04
2022-10-17T06:58:08.304Z,14.14
2022-10-17T06:59:08.671Z,14.16
2022-10-17T07:00:08.885Z,14.13
2022-10-17T07:02:09.511Z,14.12
2022-10-17T07:03:09.852Z,14.06
2022-10-17T07:04:10.190Z,14.09
2022-10-17T07:05:10.403Z,14.16
2022-10-17T07:06:10.738Z,14.34
2022-10-17T07:07:11.093Z,14.57
2022-10-17T07:08:11.293Z,14.81
2022-10-17T07:09:11.607Z,15.03
2022-10-17T07:10:11.951Z,15.24
2022-10-17T07:11:12.154Z,15.49
2022-10-17T07:12:12.513Z,15.72
2022-10-17T07:13:12.732Z,15.93
2022-10-17T07:14:13.055Z,15.99
2022-10-17T07:15:13.395Z,15.97
2022-10-17T07:16:13.784Z,16.11
2022-10-17T07:17:14.032Z,16.22
2022-10-17T07:18:14.229Z,16.40
2022-10-17T07:19:14.542Z,16.48
2022-10-17T07:20:14.870Z,16.53
2022-10-17T07:21:15.190Z,16.48
2022-10-17T07:22:15.538Z,16.55
2022-10-17T07:23:15.751Z,16.71
2022-10-17T07:24:16.081Z,16.95
2022-10-17T07:25:16.448Z,17.22
2022-10-17T07:26:16.675Z,17.41
2022-10-17T07:27:17.012Z,17.47
2022-10-17T07:28:17.340Z,17.44
2022-10-17T07:29:17.706Z,17.35
2022-10-17T07:30:17.913Z,17.17
2022-10-17T07:31:18.266Z,17.07
2022-10-17T07:32:18.468Z,17.11
2022-10-17T07:33:18.798Z,17.14
2022-10-17T07:34:19.001Z,17.15
2022-10-17T07:35:19.386Z,17.14
2022-10-17T07:36:19.563Z,17.17
2022-10-17T07:37:19.871Z,17.17
2022-10-17T07:38:20.200Z,17.18
2022-10-17T07:39:20.520Z,17.23
2022-10-17T07:40:20.857Z,17.22
2022-10-17T07:41:21.929Z,17.22
2022-10-17T07:42:21.494Z,17.22
2022-10-17T07:43:21.799Z,17.22
2022-10-17T07:44:22.157Z,17.18
2022-10-17T07:45:22.341Z,16.93
2022-10-17T07:46:22.649Z,16.78
2022-10-17T07:47:22.927Z,16.65
2022-10-17T07:48:23.271Z,16.56
2022-10-17T07:49:23.478Z,16.50
2022-10-17T07:50:23.782Z,16.48
2022-10-17T07:51:24.099Z,16.42
2022-10-17T07:52:24.451Z,16.35
2022-10-17T07:53:24.645Z,16.27
2022-10-17T07:54:24.961Z,16.18
2022-10-17T07:55:25.254Z,16.07
2022-10-17T07:56:25.548Z,16.07
2022-10-17T07:57:25.837Z,16.15
2022-10-17T07:58:26.132Z,16.18
2022-10-17T07:59:26.470Z,16.18
2022-10-17T08:00:26.783Z,16.20
2022-10-17T08:01:27.092Z,16.15
2022-10-17T08:02:27.783Z,16.00
2022-10-17T08:03:27.643Z,15.94
2022-10-17T08:04:28.007Z,15.96
2022-10-17T08:05:28.200Z,15.93
2022-10-17T08:06:28.473Z,15.79
2022-10-17T08:07:29.599Z,15.70
2022-10-17T08:08:28.990Z,15.76
2022-10-17T08:09:29.315Z,15.86
2022-10-17T08:10:29.634Z,15.94
2022-10-17T08:11:29.957Z,16.09
2022-10-17T08:12:30.567Z,16.11
2022-10-17T08:13:30.513Z,16.11
2022-10-17T08:14:30.861Z,16.04
2022-10-17T08:15:32.068Z,16.14
2022-10-17T08:16:31.277Z,16.22
2022-10-17T08:17:31.620Z,16.37
2022-10-17T08:18:31.830Z,16.45
2022-10-17T08:19:32.133Z,16.56
2022-10-17T08:20:32.419Z,16.70
2022-10-17T08:21:32.775Z,16.85
2022-10-17T08:22:33.085Z,16.95
2022-10-17T08:23:33.388Z,17.03
2022-10-17T08:24:33.705Z,17.18
2022-10-17T08:25:34.010Z,17.38
2022-10-17T08:26:35.054Z,17.62
2022-10-17T08:27:34.606Z,17.78
2022-10-17T08:28:34.956Z,17.99
2022-10-17T08:29:35.175Z,18.22
2022-10-17T08:30:35.494Z,18.50
2022-10-17T08:31:35.853Z,18.67
2022-10-17T08:32:36.039Z,18.92
2022-10-17T08:33:36.357Z,19.35
2022-10-17T08:34:36.677Z,19.72
2022-10-17T08:35:37.011Z,19.79
2022-10-17T08:36:37.354Z,20.15
2022-10-17T08:37:37.547Z,20.50
2022-10-17T08:38:40.376Z,20.74
2022-10-17T08:39:39.162Z,20.76
2022-10-17T08:40:38.442Z,20.93
2022-10-17T08:41:38.627Z,20.91
2022-10-17T08:42:38.953Z,20.76
2022-10-17T08:43:39.254Z,20.59
2022-10-17T08:44:39.571Z,20.28
2022-10-17T08:45:39.951Z,20.15
2022-10-17T08:46:40.149Z,20.31
2022-10-17T08:47:40.442Z,20.34
2022-10-17T08:48:44.057Z,20.33
2022-10-17T08:49:42.073Z,20.47
2022-10-17T08:50:41.374Z,20.77
2022-10-17T08:51:41.587Z,20.71
2022-10-17T08:52:41.916Z,20.96
2022-10-17T08:53:42.223Z,21.20
2022-10-17T08:54:42.563Z,21.44
2022-10-17T08:55:45.411Z,21.69
2022-10-17T08:56:48.567Z,21.64
2022-10-17T08:57:44.455Z,21.72
2022-10-17T08:58:43.782Z,22.02
2022-10-17T08:59:44.155Z,22.38
2022-10-17T09:00:44.343Z,22.46
2022-10-17T09:01:44.688Z,22.43
2022-10-17T09:02:45.097Z,22.65
2022-10-17T09:03:45.235Z,22.80
2022-10-17T09:04:45.604Z,22.78
2022-10-17T09:05:45.816Z,22.78
2022-10-17T09:06:46.190Z,23.50
2022-10-17T09:07:46.398Z,23.97
2022-10-17T09:08:46.707Z,23.97
2022-10-17T09:09:47.056Z,23.97
2022-10-17T09:10:47.384Z,24.63
2022-10-17T09:11:47.739Z,24.80
2022-10-17T09:12:47.951Z,24.76
2022-10-17T09:13:48.285Z,24.47
2022-10-17T09:14:48.599Z,24.35
2022-10-17T09:15:48.918Z,24.29
2022-10-17T09:16:49.266Z,23.87
2022-10-17T09:17:49.613Z,23.97
2022-10-17T09:18:49.808Z,24.23
2022-10-17T09:19:50.126Z,23.68
2022-10-17T09:20:50.446Z,22.99
2022-10-17T09:21:50.775Z,22.94
2022-10-17T09:22:51.124Z,23.09
2022-10-17T09:23:56.118Z,23.42
2022-10-17T09:24:52.627Z,23.58
2022-10-17T09:25:51.894Z,23.50
2022-10-17T09:26:52.207Z,23.83
2022-10-17T09:27:52.550Z,24.27
2022-10-17T09:28:52.900Z,24.60
2022-10-17T09:29:53.144Z,24.50
2022-10-17T09:30:53.466Z,24.29
2022-10-17T09:31:53.780Z,24.32
2022-10-17T09:32:54.029Z,24.13
2022-10-17T09:33:55.137Z,24.45
2022-10-17T09:34:54.636Z,25.06
2022-10-17T09:35:54.995Z,24.60
2022-10-17T09:36:55.198Z,24.42
2022-10-17T09:37:55.506Z,23.67
2022-10-17T09:38:55.814Z,23.77
2022-10-17T09:39:56.148Z,23.97
2022-10-17T09:40:57.236Z,24.00
2022-10-17T09:41:56.771Z,22.89
2022-10-17T09:42:57.084Z,22.04
2022-10-17T09:43:57.378Z,22.22
2022-10-17T09:44:57.713Z,21.90
2022-10-17T09:45:58.024Z,21.71
2022-10-17T09:46:58.349Z,21.78
2022-10-17T09:48:01.011Z,22.23
2022-10-17T09:48:58.946Z,22.57
2022-10-17T09:49:59.246Z,22.74
2022-10-17T09:51:14.645Z,22.47
2022-10-17T09:52:00.850Z,22.02
2022-10-17T09:53:00.125Z,21.71
2022-10-17T09:54:00.459Z,21.72
2022-10-17T09:55:00.757Z,21.69
2022-10-17T09:56:01.076Z,21.61
2022-10-17T09:57:01.384Z,21.66
2022-10-17T09:58:01.718Z,21.85
2022-10-17T09:59:02.042Z,21.78
2022-10-17T10:00:02.456Z,21.76
2022-10-17T10:01:02.664Z,21.72
2022-10-17T10:02:02.858Z,21.75
2022-10-17T10:03:03.242Z,21.81
2022-10-17T10:04:03.500Z,21.64
2022-10-17T10:05:05.621Z,21.63
2022-10-17T10:06:04.027Z,21.59
2022-10-17T10:07:04.320Z,21.69
2022-10-17T10:08:04.606Z,21.56
2022-10-17T10:09:04.882Z,21.48
2022-10-17T10:10:05.207Z,21.46
2022-10-17T10:11:05.512Z,21.53
2022-10-17T10:12:05.813Z,21.48
2022-10-17T10:13:06.137Z,21.39
2022-10-17T10:14:06.441Z,21.26
2022-10-17T10:15:06.738Z,21.14
2022-10-17T10:16:07.062Z,21.19
2022-10-17T10:17:07.250Z,21.27
2022-10-17T10:18:07.548Z,21.32
2022-10-17T10:19:09.149Z,21.36
2022-10-17T10:20:08.136Z,21.45
2022-10-17T10:21:08.455Z,21.71
2022-10-17T10:22:08.798Z,21.78
2022-10-17T10:23:09.118Z,21.83
2022-10-17T10:24:09.473Z,21.91
2022-10-17T10:25:09.658Z,21.90
2022-10-17T10:26:12.318Z,21.97
2022-10-17T10:27:10.220Z,22.02
2022-10-17T10:28:10.540Z,22.27
2022-10-17T10:29:11.011Z,22.53
2022-10-17T10:30:11.361Z,22.75
2022-10-17T10:31:11.371Z,23.12
2022-10-17T10:32:11.646Z,23.64
2022-10-17T10:33:11.916Z,24.13
2022-10-17T10:34:12.266Z,24.73
2022-10-17T10:35:12.443Z,25.57
2022-10-17T10:36:12.737Z,26.28
2022-10-17T10:37:14.753Z,26.62
2022-10-17T10:38:13.339Z,26.79
2022-10-17T10:39:13.663Z,26.84
2022-10-17T10:40:14.016Z,26.94
2022-10-17T10:41:14.222Z,26.76
2022-10-17T10:42:14.551Z,27.14
2022-10-17T10:43:14.756Z,27.41
2022-10-17T10:44:15.045Z,28.09
2022-10-17T10:45:29.413Z,28.85
2022-10-17T10:46:16.701Z,29.71
2022-10-17T10:47:15.936Z,30.24
2022-10-17T10:48:16.274Z,30.84
2022-10-17T10:49:16.587Z,31.13
2022-10-17T10:50:16.942Z,31.43
2022-10-17T10:51:17.125Z,31.75
2022-10-17T10:52:17.415Z,31.82
2022-10-17T10:53:17.731Z,31.76
2022-10-17T10:54:18.039Z,31.48
2022-10-17T10:55:18.358Z,31.06
2022-10-17T10:56:18.683Z,30.38
2022-10-17T10:57:19.001Z,30.09
2022-10-17T10:58:19.315Z,29.60
2022-10-17T10:59:19.626Z,29.01
2022-10-17T11:00:19.927Z,28.35
2022-10-17T11:01:20.317Z,27.57
2022-10-17T11:02:20.573Z,27.80
2022-10-17T11:03:20.867Z,27.71
2022-10-17T11:04:23.005Z,27.61
2022-10-17T11:05:21.425Z,27.69
2022-10-17T11:06:21.733Z,27.67
2022-10-17T11:07:22.077Z,27.94
2022-10-17T11:08:22.275Z,27.85
2022-10-17T11:09:22.583Z,27.98
2022-10-17T11:10:22.917Z,28.14
2022-10-17T11:11:23.231Z,28.31
2022-10-17T11:12:23.539Z,28.66
2022-10-17T11:13:23.855Z,29.43
2022-10-17T11:14:24.152Z,30.29
2022-10-17T11:15:24.501Z,31.06
2022-10-17T11:16:24.811Z,31.91
2022-10-17T11:17:25.167Z,32.30
2022-10-17T11:18:25.397Z,32.49
2022-10-17T11:19:25.590Z,32.64
2022-10-17T11:20:25.894Z,32.24
2022-10-17T11:21:26.202Z,32.02
2022-10-17T11:22:29.045Z,31.58
2022-10-17T11:23:26.863Z,31.20
2022-10-17T11:24:27.179Z,31.24
2022-10-17T11:25:27.377Z,31.79
2022-10-17T11:26:27.756Z,32.25
2022-10-17T11:27:27.968Z,32.99
2022-10-17T11:28:28.385Z,33.52
2022-10-17T11:29:28.589Z,34.05
2022-10-17T11:30:28.893Z,34.00
2022-10-17T11:31:29.218Z,33.20
2022-10-17T11:32:29.929Z,31.88
2022-10-17T11:33:29.816Z,31.09
2022-10-17T11:34:30.123Z,30.69
2022-10-17T11:35:30.422Z,31.28
2022-10-17T11:36:30.719Z,32.37
2022-10-17T11:37:31.034Z,33.34
2022-10-17T11:38:31.363Z,33.80
2022-10-17T11:39:31.666Z,33.80
2022-10-17T11:40:31.975Z,33.92
2022-10-17T11:41:32.283Z,34.05
2022-10-17T11:42:32.981Z,34.22
2022-10-17T11:43:32.836Z,34.48
2022-10-17T11:44:33.150Z,34.92
2022-10-17T11:45:33.454Z,34.61
2022-10-17T11:46:33.787Z,35.20
2022-10-17T11:47:34.150Z,35.28
2022-10-17T11:48:34.465Z,35.36
2022-10-17T11:49:38.225Z,35.17
2022-10-17T11:52:55.502Z,35.13
2022-10-17T11:53:36.854Z,34.29
2022-10-17T11:54:36.097Z,33.86
2022-10-17T11:55:36.423Z,33.73
2022-10-17T11:56:41.813Z,33.71
2022-10-17T11:57:38.013Z,33.29
2022-10-17T11:58:37.540Z,33.42
2022-10-17T11:59:37.547Z,33.90
2022-10-17T12:00:40.545Z,34.23
2022-10-17T12:01:38.260Z,34.34
2022-10-17T12:02:39.204Z,34.27
2022-10-17T12:03:38.656Z,34.16
2022-10-17T12:04:39.358Z,34.17
2022-10-17T12:05:39.082Z,34.48
2022-10-17T12:06:39.407Z,34.94
2022-10-17T12:07:39.766Z,35.67
2022-10-17T12:08:40.007Z,36.35
2022-10-17T12:09:40.341Z,37.07
2022-10-17T12:10:40.655Z,37.42
2022-10-17T12:11:40.992Z,37.83
2022-10-17T12:12:41.331Z,38.23
2022-10-17T12:13:41.636Z,38.03
2022-10-17T12:14:41.985Z,38.36
2022-10-17T12:15:46.473Z,38.68
2022-10-17T12:17:42.764Z,38.14
2022-10-17T12:18:42.943Z,38.26
2022-10-17T12:19:43.225Z,38.76
2022-10-17T12:20:43.559Z,38.82
2022-10-17T12:21:43.764Z,38.60
2022-10-17T12:22:44.136Z,38.70
2022-10-17T12:23:44.344Z,38.85
2022-10-17T12:24:44.648Z,39.15
2022-10-17T12:25:44.983Z,39.58
2022-10-17T12:26:45.292Z,39.89
2022-10-17T12:27:45.650Z,40.18
2022-10-17T12:28:45.890Z,40.59
2022-10-17T12:29:46.105Z,40.94
2022-10-17T12:30:46.455Z,41.28
2022-10-17T12:31:47.554Z,41.44
2022-10-17T12:33:04.143Z,41.44
2022-10-17T12:33:48.438Z,41.65
2022-10-17T12:34:47.691Z,41.37
2022-10-17T12:35:48.003Z,41.39
2022-10-17T12:36:48.340Z,41.37
2022-10-17T12:37:48.531Z,41.22
2022-10-17T12:38:49.870Z,40.79
2022-10-17T12:39:49.181Z,40.02
2022-10-17T12:40:49.500Z,39.65
2022-10-17T12:41:49.860Z,40.02
2022-10-17T12:42:50.058Z,40.12
2022-10-17T12:44:51.358Z,40.19
2022-10-17T12:45:51.077Z,40.24
2022-10-17T12:46:51.338Z,40.23
2022-10-17T12:47:51.550Z,40.21
2022-10-17T12:48:51.813Z,40.52
2022-10-17T12:49:56.487Z,40.75
2022-10-17T12:50:52.425Z,41.05
2022-10-17T12:51:52.759Z,40.96
2022-10-17T12:52:53.064Z,40.86
2022-10-17T12:53:53.408Z,40.36
2022-10-17T12:55:00.622Z,40.33
2022-10-17T12:55:54.946Z,40.43
2022-10-17T12:56:54.233Z,40.34
2022-10-17T12:57:54.580Z,40.36
2022-10-17T12:58:54.882Z,40.33
2022-10-17T12:59:57.976Z,40.62
2022-10-17T13:01:18.964Z,40.72
2022-10-17T13:01:56.752Z,40.34
2022-10-17T13:02:56.015Z,40.42
2022-10-17T13:03:56.310Z,40.23
2022-10-17T13:04:56.625Z,40.23
2022-10-17T13:05:56.970Z,40.29
2022-10-17T13:06:57.167Z,39.51
2022-10-17T13:07:57.487Z,39.47
2022-10-17T13:09:03.328Z,39.61
2022-10-17T13:09:59.126Z,39.61
2022-10-17T13:10:58.403Z,38.82
2022-10-17T13:11:58.780Z,37.92
2022-10-17T13:12:58.974Z,37.59
2022-10-17T13:13:59.287Z,37.29
2022-10-17T13:14:59.596Z,37.68
2022-10-17T13:15:59.946Z,37.83
2022-10-17T13:17:00.134Z,37.12
2022-10-17T13:18:00.471Z,36.21
2022-10-17T13:19:00.781Z,36.21
2022-10-17T13:20:01.074Z,36.65
2022-10-17T13:21:01.419Z,37.24
2022-10-17T13:22:06.536Z,37.41
2022-10-17T13:23:03.018Z,37.67
2022-10-17T13:24:02.279Z,37.78
2022-10-17T13:25:02.596Z,37.68
2022-10-17T13:26:02.930Z,38.17
2022-10-17T13:27:07.056Z,38.55
2022-10-17T13:28:03.537Z,38.76
2022-10-17T13:29:03.978Z,39.02
2022-10-17T13:30:04.136Z,38.36
2022-10-17T13:31:04.440Z,38.44
2022-10-17T13:32:04.795Z,38.63
2022-10-17T13:33:04.985Z,38.92
2022-10-17T13:34:05.279Z,38.67
2022-10-17T13:35:05.597Z,38.32
2022-10-17T13:36:05.952Z,37.92
2022-10-17T13:37:06.183Z,37.56
2022-10-17T13:38:06.518Z,37.77
2022-10-17T13:39:09.405Z,38.05
2022-10-17T13:40:30.892Z,37.41
2022-10-17T13:41:33.588Z,36.98
2022-10-17T13:42:08.550Z,37.23
2022-10-17T13:43:07.798Z,36.99
2022-10-17T13:44:08.087Z,36.90
2022-10-17T13:45:08.401Z,36.64
2022-10-17T13:46:32.583Z,36.58
2022-10-17T13:47:10.078Z,36.42
2022-10-17T13:48:09.343Z,36.29
2022-10-17T13:49:09.657Z,36.73
2022-10-17T13:50:26.384Z,36.97
2022-10-17T13:51:11.405Z,36.98
2022-10-17T13:52:10.579Z,36.86
2022-10-17T13:53:10.885Z,37.02
2022-10-17T13:54:11.169Z,37.14
2022-10-17T13:55:14.287Z,36.98
2022-10-17T13:56:29.551Z,36.86
2022-10-17T13:57:13.089Z,36.51
2022-10-17T13:58:12.231Z,36.11
2022-10-17T13:59:12.552Z,35.73
2022-10-17T14:00:12.864Z,35.21
2022-10-17T14:01:13.221Z,34.56
2022-10-17T14:02:13.462Z,34.01
2022-10-17T14:03:13.674Z,33.53
2022-10-17T14:04:19.751Z,32.79
2022-10-17T14:05:18.316Z,32.14
2022-10-17T14:06:14.612Z,31.67
2022-10-17T14:07:14.964Z,30.98
2022-10-17T14:08:21.856Z,30.26
2022-10-17T14:09:16.574Z,29.47
2022-10-17T14:10:15.835Z,29.18
2022-10-17T14:11:16.193Z,28.95
2022-10-17T14:12:16.397Z,28.90
2022-10-17T14:13:16.732Z,28.46
2022-10-17T14:14:17.056Z,28.32
2022-10-17T14:15:17.363Z,28.13
2022-10-17T14:16:17.677Z,27.95
2022-10-17T14:17:17.995Z,27.66
2022-10-17T14:18:18.365Z,27.29
2022-10-17T14:19:18.543Z,27.23
2022-10-17T14:21:40.569Z,27.24
2022-10-17T14:22:20.486Z,27.02
2022-10-17T14:23:22.902Z,27.01
2022-10-17T14:24:20.076Z,26.94
2022-10-17T14:25:20.364Z,26.73
2022-10-17T14:26:20.668Z,26.50
2022-10-17T14:27:22.319Z,26.17
2022-10-17T14:28:21.234Z,25.90
2022-10-17T14:29:21.568Z,25.67
2022-10-17T14:30:38.802Z,25.64
2022-10-17T14:31:23.189Z,25.52
2022-10-17T14:32:22.470Z,25.39
2022-10-17T14:33:22.841Z,25.27
2022-10-17T14:34:22.981Z,25.20
2022-10-17T14:35:41.092Z,25.13
2022-10-17T14:36:24.636Z,25.10
2022-10-17T14:37:23.868Z,25.16
2022-10-17T14:38:24.155Z,25.13
2022-10-17T14:39:24.490Z,25.07
2022-10-17T14:40:24.801Z,24.94
2022-10-17T14:42:26.407Z,24.79
2022-10-17T14:43:25.642Z,24.68
2022-10-17T14:44:25.929Z,24.60
2022-10-17T14:45:26.248Z,24.50
2022-10-17T14:46:26.558Z,24.41
2022-10-17T14:47:43.869Z,24.42
2022-10-17T14:48:28.192Z,24.34
2022-10-17T14:49:27.425Z,24.22
2022-10-17T14:50:27.757Z,24.05
2022-10-17T14:51:32.500Z,23.87
2022-10-17T14:52:29.496Z,23.71
2022-10-17T14:53:28.505Z,23.70
2022-10-17T14:54:28.791Z,23.71
2022-10-17T14:55:29.088Z,23.70
2022-10-17T14:56:29.401Z,23.65
2022-10-17T14:57:29.726Z,23.64
2022-10-17T14:58:30.014Z,23.61
2022-10-17T14:59:52.929Z,23.57
2022-10-17T15:00:31.702Z,23.46
2022-10-17T15:01:30.991Z,23.45
2022-10-17T15:02:31.653Z,23.47
2022-10-17T15:03:31.471Z,23.46
2022-10-17T15:04:32.567Z,23.43
2022-10-17T15:05:31.934Z,23.40
2022-10-17T15:06:32.241Z,23.34